KR-0422 weather

Samil Heliport
Busan, Busan Gwang'yeogsi, South Korea

Public forecast

Using degrees Celsius for public forecast. Weather courtesy of forecast.io.

METAR (pilot weather report)

Closest report is Gimhae International Airport, 6.8 nm (12.7 km) WNW. Retrieved 2019/09/17 09:00 UTC (48 minutes ago):

RKPK 170900Z 02012KT CAVOK 25/11 Q1013

TAF (pilot weather forecast)

Closest forecast is Gimhae International Airport, 6.8 nm (12.7 km) WNW. Retrieved 2019/09/17 06:00 UTC (4 hours ago):

TAF RKPK 170500Z 1706/1812 04012KT 9999 FEW030 SCT200 TN17/1720Z TX28/1806Z BECMG 1708/1709 04006KT